sensor_id;sensor_type;location;lat;lon;timestamp;pressure;altitude;pressure_sealevel;temperature;humidity
29063;BME280;71206;48.564;-123.458;2023-07-16T00:01:52;100893.93;;;31.72;28.84
29063;BME280;71206;48.564;-123.458;2023-07-16T00:04:17;100893.15;;;31.90;28.93
29063;BME280;71206;48.564;-123.458;2023-07-16T00:06:43;100889.12;;;31.21;29.08
29063;BME280;71206;48.564;-123.458;2023-07-16T00:09:07;100889.61;;;31.23;28.47
29063;BME280;71206;48.564;-123.458;2023-07-16T00:11:34;100891.31;;;31.66;29.34
29063;BME280;71206;48.564;-123.458;2023-07-16T00:13:59;100893.67;;;31.18;29.69
29063;BME280;71206;48.564;-123.458;2023-07-16T00:16:24;100902.80;;;30.09;30.76
29063;BME280;71206;48.564;-123.458;2023-07-16T00:18:50;100901.13;;;27.00;33.93
29063;BME280;71206;48.564;-123.458;2023-07-16T00:21:16;100899.45;;;27.96;33.86
29063;BME280;71206;48.564;-123.458;2023-07-16T00:23:41;100893.09;;;29.68;32.00
29063;BME280;71206;48.564;-123.458;2023-07-16T00:26:07;100893.13;;;28.63;32.33
29063;BME280;71206;48.564;-123.458;2023-07-16T00:28:33;100892.15;;;28.65;32.65
29063;BME280;71206;48.564;-123.458;2023-07-16T00:30:58;100879.48;;;28.09;32.40
29063;BME280;71206;48.564;-123.458;2023-07-16T00:33:25;100871.83;;;28.12;32.19
29063;BME280;71206;48.564;-123.458;2023-07-16T00:35:50;100874.53;;;28.64;31.67
29063;BME280;71206;48.564;-123.458;2023-07-16T00:38:16;100881.66;;;29.73;30.66
29063;BME280;71206;48.564;-123.458;2023-07-16T00:40:41;100878.44;;;28.07;31.95
29063;BME280;71206;48.564;-123.458;2023-07-16T00:43:07;100883.30;;;28.01;32.76
29063;BME280;71206;48.564;-123.458;2023-07-16T00:45:32;100882.67;;;28.41;32.32
29063;BME280;71206;48.564;-123.458;2023-07-16T00:47:58;100888.20;;;29.85;30.84
29063;BME280;71206;48.564;-123.458;2023-07-16T00:50:24;100886.73;;;29.61;30.90
29063;BME280;71206;48.564;-123.458;2023-07-16T00:52:49;100883.31;;;29.70;30.33
29063;BME280;71206;48.564;-123.458;2023-07-16T00:55:16;100880.63;;;29.56;30.17
29063;BME280;71206;48.564;-123.458;2023-07-16T00:57:40;100881.94;;;29.54;30.05
29063;BME280;71206;48.564;-123.458;2023-07-16T01:00:08;100874.63;;;29.76;30.51
29063;BME280;71206;48.564;-123.458;2023-07-16T01:02:37;100874.06;;;29.25;30.49
29063;BME280;71206;48.564;-123.458;2023-07-16T01:04:57;100868.78;;;30.14;29.16
29063;BME280;71206;48.564;-123.458;2023-07-16T01:07:25;100867.39;;;29.69;30.23
29063;BME280;71206;48.564;-123.458;2023-07-16T01:09:49;100861.81;;;30.25;29.31
29063;BME280;71206;48.564;-123.458;2023-07-16T01:12:17;100865.95;;;30.60;29.04
29063;BME280;71206;48.564;-123.458;2023-07-16T01:14:41;100865.72;;;30.07;30.18
29063;BME280;71206;48.564;-123.458;2023-07-16T01:17:06;100868.26;;;30.15;30.67
29063;BME280;71206;48.564;-123.458;2023-07-16T01:19:33;100864.60;;;28.82;32.05
29063;BME280;71206;48.564;-123.458;2023-07-16T01:22:09;100862.27;;;28.58;32.39
29063;BME280;71206;48.564;-123.458;2023-07-16T01:27:02;100862.91;;;28.15;32.61
29063;BME280;71206;48.564;-123.458;2023-07-16T01:29:26;100872.95;;;27.02;33.68
29063;BME280;71206;48.564;-123.458;2023-07-16T01:31:41;100870.49;;;27.37;34.57
29063;BME280;71206;48.564;-123.458;2023-07-16T01:34:05;100862.17;;;28.20;34.02
29063;BME280;71206;48.564;-123.458;2023-07-16T01:36:32;100869.43;;;28.83;32.04
29063;BME280;71206;48.564;-123.458;2023-07-16T01:38:57;100873.04;;;28.61;33.24
29063;BME280;71206;48.564;-123.458;2023-07-16T01:41:22;100876.15;;;28.83;32.60
29063;BME280;71206;48.564;-123.458;2023-07-16T01:43:48;100880.10;;;29.02;32.50
29063;BME280;71206;48.564;-123.458;2023-07-16T01:46:14;100880.96;;;28.79;33.36
29063;BME280;71206;48.564;-123.458;2023-07-16T01:48:40;100875.44;;;29.11;32.49
29063;BME280;71206;48.564;-123.458;2023-07-16T01:51:08;100862.84;;;28.86;33.37
29063;BME280;71206;48.564;-123.458;2023-07-16T01:53:31;100862.46;;;28.80;33.12
29063;BME280;71206;48.564;-123.458;2023-07-16T01:55:56;100859.92;;;29.88;32.47
29063;BME280;71206;48.564;-123.458;2023-07-16T01:58:22;100856.61;;;29.39;33.01
29063;BME280;71206;48.564;-123.458;2023-07-16T02:00:49;100854.44;;;27.49;34.51
29063;BME280;71206;48.564;-123.458;2023-07-16T02:03:14;100853.65;;;27.85;34.75
29063;BME280;71206;48.564;-123.458;2023-07-16T02:05:39;100843.68;;;28.30;34.85
29063;BME280;71206;48.564;-123.458;2023-07-16T02:08:04;100839.46;;;27.68;35.34
29063;BME280;71206;48.564;-123.458;2023-07-16T02:10:30;100837.93;;;28.47;33.91
29063;BME280;71206;48.564;-123.458;2023-07-16T02:12:56;100835.23;;;28.35;34.75
29063;BME280;71206;48.564;-123.458;2023-07-16T02:15:21;100827.14;;;28.85;32.78
29063;BME280;71206;48.564;-123.458;2023-07-16T02:17:47;100826.72;;;29.29;32.24
29063;BME280;71206;48.564;-123.458;2023-07-16T02:20:12;100828.50;;;28.60;32.17
29063;BME280;71206;48.564;-123.458;2023-07-16T02:22:38;100822.02;;;28.27;32.13
29063;BME280;71206;48.564;-123.458;2023-07-16T02:25:04;100826.71;;;28.52;31.16
29063;BME280;71206;48.564;-123.458;2023-07-16T02:27:29;100821.57;;;27.45;31.58
29063;BME280;71206;48.564;-123.458;2023-07-16T02:29:56;100825.19;;;27.40;31.74
29063;BME280;71206;48.564;-123.458;2023-07-16T02:32:23;100825.96;;;27.08;31.78
29063;BME280;71206;48.564;-123.458;2023-07-16T02:34:47;100816.33;;;28.08;31.14
29063;BME280;71206;48.564;-123.458;2023-07-16T02:37:12;100818.49;;;28.45;31.01
29063;BME280;71206;48.564;-123.458;2023-07-16T02:39:40;100816.61;;;28.81;29.56
29063;BME280;71206;48.564;-123.458;2023-07-16T02:42:03;100810.82;;;29.95;28.70
29063;BME280;71206;48.564;-123.458;2023-07-16T02:44:29;100807.70;;;30.03;29.24
29063;BME280;71206;48.564;-123.458;2023-07-16T02:46:54;100806.31;;;30.32;28.34
29063;BME280;71206;48.564;-123.458;2023-07-16T02:49:21;100817.25;;;29.60;32.32
29063;BME280;71206;48.564;-123.458;2023-07-16T02:51:46;100818.34;;;29.18;32.62
29063;BME280;71206;48.564;-123.458;2023-07-16T02:54:11;100822.74;;;29.24;32.94
29063;BME280;71206;48.564;-123.458;2023-07-16T02:56:40;100817.81;;;28.84;34.43
29063;BME280;71206;48.564;-123.458;2023-07-16T02:59:03;100808.70;;;28.70;34.56
29063;BME280;71206;48.564;-123.458;2023-07-16T03:01:28;100805.63;;;28.65;35.23
29063;BME280;71206;48.564;-123.458;2023-07-16T03:03:54;100807.17;;;28.56;35.26
29063;BME280;71206;48.564;-123.458;2023-07-16T03:06:20;100803.51;;;28.36;35.36
29063;BME280;71206;48.564;-123.458;2023-07-16T03:08:47;100803.12;;;27.71;36.34
29063;BME280;71206;48.564;-123.458;2023-07-16T03:11:12;100803.98;;;27.97;36.22
29063;BME280;71206;48.564;-123.458;2023-07-16T03:13:36;100803.37;;;28.11;36.06
29063;BME280;71206;48.564;-123.458;2023-07-16T03:16:02;100798.93;;;26.22;38.40
29063;BME280;71206;48.564;-123.458;2023-07-16T03:18:29;100793.45;;;27.64;36.63
29063;BME280;71206;48.564;-123.458;2023-07-16T03:20:53;100794.54;;;26.95;37.41
29063;BME280;71206;48.564;-123.458;2023-07-16T03:23:23;100788.43;;;27.05;36.41
29063;BME280;71206;48.564;-123.458;2023-07-16T03:25:46;100790.27;;;27.23;36.72
29063;BME280;71206;48.564;-123.458;2023-07-16T03:28:11;100790.51;;;27.03;37.41
29063;BME280;71206;48.564;-123.458;2023-07-16T03:30:36;100787.21;;;29.00;35.48
29063;BME280;71206;48.564;-123.458;2023-07-16T03:33:02;100785.82;;;26.08;38.86
29063;BME280;71206;48.564;-123.458;2023-07-16T03:35:28;100786.06;;;27.42;37.43
29063;BME280;71206;48.564;-123.458;2023-07-16T03:37:54;100788.11;;;25.90;38.97
29063;BME280;71206;48.564;-123.458;2023-07-16T03:40:25;100790.33;;;25.47;40.69
29063;BME280;71206;48.564;-123.458;2023-07-16T03:42:45;100789.08;;;26.43;39.05
29063;BME280;71206;48.564;-123.458;2023-07-16T03:45:11;100792.52;;;25.62;40.90
29063;BME280;71206;48.564;-123.458;2023-07-16T03:47:37;100795.21;;;25.12;41.57
29063;BME280;71206;48.564;-123.458;2023-07-16T03:50:03;100805.47;;;25.39;42.23
29063;BME280;71206;48.564;-123.458;2023-07-16T03:52:27;100802.99;;;25.86;41.46
29063;BME280;71206;48.564;-123.458;2023-07-16T03:54:54;100803.75;;;26.43;40.36
29063;BME280;71206;48.564;-123.458;2023-07-16T03:57:19;100806.97;;;24.97;42.00
29063;BME280;71206;48.564;-123.458;2023-07-16T03:59:45;100802.76;;;25.37;41.58
29063;BME280;71206;48.564;-123.458;2023-07-16T04:02:11;100801.67;;;25.13;41.62
29063;BME280;71206;48.564;-123.458;2023-07-16T04:04:40;100804.50;;;24.80;42.41
29063;BME280;71206;48.564;-123.458;2023-07-16T04:07:02;100806.66;;;24.57;42.04
29063;BME280;71206;48.564;-123.458;2023-07-16T04:09:27;100808.16;;;24.54;43.11
29063;BME280;71206;48.564;-123.458;2023-07-16T04:11:53;100812.72;;;23.91;43.55
29063;BME280;71206;48.564;-123.458;2023-07-16T04:14:19;100815.75;;;23.48;44.05
29063;BME280;71206;48.564;-123.458;2023-07-16T04:16:46;100821.01;;;23.86;43.50
29063;BME280;71206;48.564;-123.458;2023-07-16T04:19:10;100826.41;;;24.49;41.25
29063;BME280;71206;48.564;-123.458;2023-07-16T04:21:37;100829.95;;;24.25;41.28
29063;BME280;71206;48.564;-123.458;2023-07-16T04:24:02;100832.23;;;24.64;39.12
29063;BME280;71206;48.564;-123.458;2023-07-16T04:26:28;100825.84;;;23.70;40.39
29063;BME280;71206;48.564;-123.458;2023-07-16T04:28:53;100830.44;;;24.37;40.58
29063;BME280;71206;48.564;-123.458;2023-07-16T04:31:20;100825.71;;;23.70;39.79
29063;BME280;71206;48.564;-123.458;2023-07-16T04:33:45;100821.44;;;23.66;40.09
29063;BME280;71206;48.564;-123.458;2023-07-16T04:36:10;100824.97;;;23.48;40.42
29063;BME280;71206;48.564;-123.458;2023-07-16T04:38:36;100829.19;;;23.46;40.37
29063;BME280;71206;48.564;-123.458;2023-07-16T04:41:03;100828.17;;;23.63;39.70
29063;BME280;71206;48.564;-123.458;2023-07-16T04:43:27;100828.81;;;24.23;38.91
29063;BME280;71206;48.564;-123.458;2023-07-16T04:45:53;100834.93;;;23.89;39.25
29063;BME280;71206;48.564;-123.458;2023-07-16T04:48:19;100836.83;;;23.24;38.38
29063;BME280;71206;48.564;-123.458;2023-07-16T04:50:45;100833.89;;;23.92;37.17
29063;BME280;71206;48.564;-123.458;2023-07-16T04:53:10;100833.03;;;23.39;37.40
29063;BME280;71206;48.564;-123.458;2023-07-16T04:55:42;100832.23;;;23.91;37.28
29063;BME280;71206;48.564;-123.458;2023-07-16T04:58:02;100834.37;;;24.10;36.87
29063;BME280;71206;48.564;-123.458;2023-07-16T05:00:27;100833.64;;;24.06;36.63
29063;BME280;71206;48.564;-123.458;2023-07-16T05:02:54;100830.02;;;23.82;36.21
29063;BME280;71206;48.564;-123.458;2023-07-16T05:05:18;100834.53;;;24.15;36.45
29063;BME280;71206;48.564;-123.458;2023-07-16T05:07:44;100831.48;;;23.78;37.54
29063;BME280;71206;48.564;-123.458;2023-07-16T05:10:10;100833.23;;;23.82;37.17
29063;BME280;71206;48.564;-123.458;2023-07-16T05:12:36;100837.20;;;22.96;39.12
29063;BME280;71206;48.564;-123.458;2023-07-16T05:15:02;100831.58;;;24.08;37.39
29063;BME280;71206;48.564;-123.458;2023-07-16T05:17:27;100834.04;;;23.68;38.56
29063;BME280;71206;48.564;-123.458;2023-07-16T05:19:57;100833.82;;;23.14;39.18
29063;BME280;71206;48.564;-123.458;2023-07-16T05:22:18;100831.02;;;22.60;39.96
29063;BME280;71206;48.564;-123.458;2023-07-16T05:24:44;100834.22;;;22.46;40.45
29063;BME280;71206;48.564;-123.458;2023-07-16T05:27:10;100832.16;;;22.65;40.52
29063;BME280;71206;48.564;-123.458;2023-07-16T05:29:37;100835.32;;;23.06;39.82
29063;BME280;71206;48.564;-123.458;2023-07-16T05:32:01;100837.70;;;22.48;40.76
29063;BME280;71206;48.564;-123.458;2023-07-16T05:34:27;100837.78;;;21.67;43.87
29063;BME280;71206;48.564;-123.458;2023-07-16T05:36:54;100839.81;;;24.13;40.19
29063;BME280;71206;48.564;-123.458;2023-07-16T05:39:19;100847.74;;;22.31;43.32
29063;BME280;71206;48.564;-123.458;2023-07-16T05:41:46;100846.56;;;22.72;42.68
29063;BME280;71206;48.564;-123.458;2023-07-16T05:44:10;100846.65;;;22.24;42.85
29063;BME280;71206;48.564;-123.458;2023-07-16T05:46:36;100842.34;;;22.63;41.82
29063;BME280;71206;48.564;-123.458;2023-07-16T05:49:02;100843.31;;;21.21;44.74
29063;BME280;71206;48.564;-123.458;2023-07-16T05:51:28;100837.69;;;21.64;42.68
29063;BME280;71206;48.564;-123.458;2023-07-16T05:53:53;100834.08;;;21.90;42.42
29063;BME280;71206;48.564;-123.458;2023-07-16T05:56:19;100835.53;;;21.64;43.80
29063;BME280;71206;48.564;-123.458;2023-07-16T05:58:46;100837.13;;;22.42;42.75
29063;BME280;71206;48.564;-123.458;2023-07-16T06:01:11;100834.67;;;21.68;42.96
29063;BME280;71206;48.564;-123.458;2023-07-16T06:03:37;100830.93;;;22.54;39.32
29063;BME280;71206;48.564;-123.458;2023-07-16T06:06:02;100829.39;;;22.31;39.92
29063;BME280;71206;48.564;-123.458;2023-07-16T06:08:28;100831.84;;;21.72;41.68
29063;BME280;71206;48.564;-123.458;2023-07-16T06:10:54;100829.27;;;21.29;42.09
29063;BME280;71206;48.564;-123.458;2023-07-16T06:13:22;100825.69;;;20.96;43.27
29063;BME280;71206;48.564;-123.458;2023-07-16T06:15:47;100821.86;;;21.39;44.04
29063;BME280;71206;48.564;-123.458;2023-07-16T06:18:11;100818.27;;;21.38;42.01
29063;BME280;71206;48.564;-123.458;2023-07-16T06:20:37;100814.15;;;21.65;42.19
29063;BME280;71206;48.564;-123.458;2023-07-16T06:23:03;100813.85;;;20.88;44.20
29063;BME280;71206;48.564;-123.458;2023-07-16T06:25:29;100810.85;;;21.78;43.15
29063;BME280;71206;48.564;-123.458;2023-07-16T06:27:55;100810.83;;;22.07;41.94
29063;BME280;71206;48.564;-123.458;2023-07-16T06:30:20;100814.64;;;21.28;42.60
29063;BME280;71206;48.564;-123.458;2023-07-16T06:32:46;100820.00;;;21.13;42.91
29063;BME280;71206;48.564;-123.458;2023-07-16T06:35:12;100822.73;;;21.29;42.79
29063;BME280;71206;48.564;-123.458;2023-07-16T06:37:38;100825.22;;;20.92;43.64
29063;BME280;71206;48.564;-123.458;2023-07-16T06:40:05;100830.61;;;20.25;44.60
29063;BME280;71206;48.564;-123.458;2023-07-16T06:42:29;100828.56;;;20.50;44.80
29063;BME280;71206;48.564;-123.458;2023-07-16T06:44:56;100828.97;;;20.44;44.95
29063;BME280;71206;48.564;-123.458;2023-07-16T06:47:21;100828.05;;;20.07;45.75
29063;BME280;71206;48.564;-123.458;2023-07-16T06:49:46;100828.47;;;20.04;45.99
29063;BME280;71206;48.564;-123.458;2023-07-16T06:52:20;100832.91;;;19.90;47.39
29063;BME280;71206;48.564;-123.458;2023-07-16T06:54:38;100830.85;;;19.28;48.50
29063;BME280;71206;48.564;-123.458;2023-07-16T06:57:04;100833.50;;;19.39;49.13
29063;BME280;71206;48.564;-123.458;2023-07-16T06:59:30;100831.45;;;19.68;49.66
29063;BME280;71206;48.564;-123.458;2023-07-16T07:01:56;100829.64;;;19.45;49.00
29063;BME280;71206;48.564;-123.458;2023-07-16T07:04:21;100830.70;;;19.60;48.87
29063;BME280;71206;48.564;-123.458;2023-07-16T07:06:52;100830.60;;;19.81;49.60
29063;BME280;71206;48.564;-123.458;2023-07-16T07:09:13;100833.15;;;19.60;50.08
29063;BME280;71206;48.564;-123.458;2023-07-16T07:11:39;100836.91;;;18.68;52.02
29063;BME280;71206;48.564;-123.458;2023-07-16T07:14:05;100830.79;;;19.13;50.57
29063;BME280;71206;48.564;-123.458;2023-07-16T07:16:30;100834.80;;;20.67;48.43
29063;BME280;71206;48.564;-123.458;2023-07-16T07:18:56;100839.09;;;18.96;50.26
29063;BME280;71206;48.564;-123.458;2023-07-16T07:21:21;100839.90;;;19.47;49.60
29063;BME280;71206;48.564;-123.458;2023-07-16T07:23:47;100839.01;;;19.00;50.06
29063;BME280;71206;48.564;-123.458;2023-07-16T07:26:14;100841.23;;;19.55;49.49
29063;BME280;71206;48.564;-123.458;2023-07-16T07:28:40;100838.93;;;19.18;50.74
29063;BME280;71206;48.564;-123.458;2023-07-16T07:31:04;100838.80;;;19.31;49.18
29063;BME280;71206;48.564;-123.458;2023-07-16T07:33:30;100840.30;;;19.85;48.35
29063;BME280;71206;48.564;-123.458;2023-07-16T07:35:56;100846.01;;;19.36;49.87
29063;BME280;71206;48.564;-123.458;2023-07-16T07:38:22;100845.32;;;19.00;50.98
29063;BME280;71206;48.564;-123.458;2023-07-16T07:40:47;100836.55;;;19.47;48.35
29063;BME280;71206;48.564;-123.458;2023-07-16T07:43:13;100838.92;;;19.32;48.58
29063;BME280;71206;48.564;-123.458;2023-07-16T07:45:39;100838.90;;;20.50;45.48
29063;BME280;71206;48.564;-123.458;2023-07-16T07:48:06;100838.01;;;19.81;46.39
29063;BME280;71206;48.564;-123.458;2023-07-16T07:50:31;100839.57;;;19.14;48.14
29063;BME280;71206;48.564;-123.458;2023-07-16T07:52:56;100840.11;;;18.89;49.20
29063;BME280;71206;48.564;-123.458;2023-07-16T07:55:22;100838.55;;;20.85;44.46
29063;BME280;71206;48.564;-123.458;2023-07-16T07:57:48;100837.22;;;20.49;45.07
29063;BME280;71206;48.564;-123.458;2023-07-16T08:00:17;100837.78;;;19.46;45.21
29063;BME280;71206;48.564;-123.458;2023-07-16T08:02:40;100836.79;;;19.31;45.84
29063;BME280;71206;48.564;-123.458;2023-07-16T08:05:06;100841.51;;;18.97;47.29
29063;BME280;71206;48.564;-123.458;2023-07-16T08:07:31;100846.60;;;19.96;44.27
29063;BME280;71206;48.564;-123.458;2023-07-16T08:09:57;100845.31;;;20.07;42.99
29063;BME280;71206;48.564;-123.458;2023-07-16T08:12:25;100839.31;;;19.39;43.73
29063;BME280;71206;48.564;-123.458;2023-07-16T08:14:49;100837.76;;;19.54;41.59
29063;BME280;71206;48.564;-123.458;2023-07-16T08:17:15;100844.71;;;21.00;39.87
29063;BME280;71206;48.564;-123.458;2023-07-16T08:19:40;100844.45;;;19.25;44.44
29063;BME280;71206;48.564;-123.458;2023-07-16T08:22:06;100842.61;;;19.37;43.10
29063;BME280;71206;48.564;-123.458;2023-07-16T08:24:32;100848.99;;;19.13;45.66
29063;BME280;71206;48.564;-123.458;2023-07-16T08:26:58;100850.60;;;18.78;50.77
29063;BME280;71206;48.564;-123.458;2023-07-16T08:29:24;100846.44;;;19.58;47.37
29063;BME280;71206;48.564;-123.458;2023-07-16T08:31:50;100849.23;;;20.18;45.88
29063;BME280;71206;48.564;-123.458;2023-07-16T08:34:15;100854.71;;;21.02;45.08
29063;BME280;71206;48.564;-123.458;2023-07-16T08:36:41;100855.88;;;20.33;45.06
29063;BME280;71206;48.564;-123.458;2023-07-16T08:39:06;100856.69;;;18.58;48.42
29063;BME280;71206;48.564;-123.458;2023-07-16T08:41:32;100855.76;;;18.36;49.02
29063;BME280;71206;48.564;-123.458;2023-07-16T08:43:58;100855.57;;;18.30;51.28
29063;BME280;71206;48.564;-123.458;2023-07-16T08:46:24;100857.60;;;18.41;51.19
29063;BME280;71206;48.564;-123.458;2023-07-16T08:48:52;100859.36;;;18.35;52.61
29063;BME280;71206;48.564;-123.458;2023-07-16T08:51:16;100859.93;;;18.13;52.06
29063;BME280;71206;48.564;-123.458;2023-07-16T08:53:40;100864.68;;;17.92;54.23
29063;BME280;71206;48.564;-123.458;2023-07-16T08:56:05;100864.44;;;17.76;55.51
29063;BME280;71206;48.564;-123.458;2023-07-16T08:58:31;100862.38;;;17.96;54.41
29063;BME280;71206;48.564;-123.458;2023-07-16T09:00:57;100865.71;;;17.97;56.72
29063;BME280;71206;48.564;-123.458;2023-07-16T09:03:21;100866.55;;;18.33;54.95
29063;BME280;71206;48.564;-123.458;2023-07-16T09:05:47;100870.37;;;18.36;56.01
29063;BME280;71206;48.564;-123.458;2023-07-16T09:08:13;100870.59;;;18.21;55.20
29063;BME280;71206;48.564;-123.458;2023-07-16T09:10:37;100868.95;;;18.36;52.55
29063;BME280;71206;48.564;-123.458;2023-07-16T09:13:03;100867.05;;;18.00;55.24
29063;BME280;71206;48.564;-123.458;2023-07-16T09:15:29;100867.18;;;17.37;58.41
29063;BME280;71206;48.564;-123.458;2023-07-16T09:17:54;100867.22;;;17.70;57.63
29063;BME280;71206;48.564;-123.458;2023-07-16T09:20:18;100870.41;;;17.59;60.16
29063;BME280;71206;48.564;-123.458;2023-07-16T09:22:43;100872.06;;;17.12;62.02
29063;BME280;71206;48.564;-123.458;2023-07-16T09:25:08;100873.13;;;17.36;62.24
29063;BME280;71206;48.564;-123.458;2023-07-16T09:27:33;100874.04;;;17.07;65.30
29063;BME280;71206;48.564;-123.458;2023-07-16T09:29:58;100879.33;;;16.96;66.46
29063;BME280;71206;48.564;-123.458;2023-07-16T09:32:22;100878.64;;;16.84;67.67
29063;BME280;71206;48.564;-123.458;2023-07-16T09:34:50;100881.04;;;17.39;67.41
29063;BME280;71206;48.564;-123.458;2023-07-16T09:37:13;100885.07;;;16.85;69.65
29063;BME280;71206;48.564;-123.458;2023-07-16T09:39:38;100887.04;;;16.82;69.11
29063;BME280;71206;48.564;-123.458;2023-07-16T09:42:03;100890.13;;;16.83;68.94
29063;BME280;71206;48.564;-123.458;2023-07-16T09:44:28;100890.83;;;16.01;76.28
29063;BME280;71206;48.564;-123.458;2023-07-16T09:46:54;100890.44;;;16.17;76.42
29063;BME280;71206;48.564;-123.458;2023-07-16T09:49:18;100890.75;;;16.00;77.35
29063;BME280;71206;48.564;-123.458;2023-07-16T09:51:45;100888.65;;;16.15;76.59
29063;BME280;71206;48.564;-123.458;2023-07-16T09:54:09;100890.15;;;16.13;76.53
29063;BME280;71206;48.564;-123.458;2023-07-16T09:56:38;100890.85;;;15.99;79.53
29063;BME280;71206;48.564;-123.458;2023-07-16T09:59:00;100890.94;;;16.24;78.26
29063;BME280;71206;48.564;-123.458;2023-07-16T10:01:25;100895.53;;;16.53;74.53
29063;BME280;71206;48.564;-123.458;2023-07-16T10:03:50;100896.12;;;15.89;78.18
29063;BME280;71206;48.564;-123.458;2023-07-16T10:06:15;100899.53;;;16.64;70.35
29063;BME280;71206;48.564;-123.458;2023-07-16T10:08:39;100899.69;;;16.20;71.80
29063;BME280;71206;48.564;-123.458;2023-07-16T10:11:14;100902.18;;;16.25;74.16
29063;BME280;71206;48.564;-123.458;2023-07-16T10:13:35;100902.49;;;16.27;75.65
29063;BME280;71206;48.564;-123.458;2023-07-16T10:15:56;100903.01;;;16.03;78.51
29063;BME280;71206;48.564;-123.458;2023-07-16T10:18:26;100907.46;;;15.62;81.83
29063;BME280;71206;48.564;-123.458;2023-07-16T10:20:48;100903.75;;;15.71;83.94
29063;BME280;71206;48.564;-123.458;2023-07-16T10:23:12;100907.51;;;15.48;83.25
29063;BME280;71206;48.564;-123.458;2023-07-16T10:25:35;100904.23;;;15.60;84.32
29063;BME280;71206;48.564;-123.458;2023-07-16T10:28:00;100902.23;;;15.88;79.14
29063;BME280;71206;48.564;-123.458;2023-07-16T10:30:25;100907.21;;;16.51;73.69
29063;BME280;71206;48.564;-123.458;2023-07-16T10:32:52;100906.05;;;16.06;79.93
29063;BME280;71206;48.564;-123.458;2023-07-16T10:35:15;100915.11;;;16.58;73.60
29063;BME280;71206;48.564;-123.458;2023-07-16T10:37:40;100916.14;;;15.51;82.46
29063;BME280;71206;48.564;-123.458;2023-07-16T10:40:09;100916.90;;;15.49;83.46
29063;BME280;71206;48.564;-123.458;2023-07-16T10:42:31;100918.42;;;15.87;81.59
29063;BME280;71206;48.564;-123.458;2023-07-16T10:44:58;100919.07;;;15.24;85.26
29063;BME280;71206;48.564;-123.458;2023-07-16T10:47:29;100920.17;;;15.30;84.99
29063;BME280;71206;48.564;-123.458;2023-07-16T10:49:46;100918.93;;;15.24;85.73
29063;BME280;71206;48.564;-123.458;2023-07-16T10:52:12;100919.10;;;15.30;82.68
29063;BME280;71206;48.564;-123.458;2023-07-16T10:54:36;100915.53;;;15.18;86.15
29063;BME280;71206;48.564;-123.458;2023-07-16T10:57:03;100917.54;;;15.86;76.71
29063;BME280;71206;48.564;-123.458;2023-07-16T10:59:26;100920.51;;;15.57;82.10
29063;BME280;71206;48.564;-123.458;2023-07-16T11:01:51;100921.98;;;16.34;77.92
29063;BME280;71206;48.564;-123.458;2023-07-16T11:04:17;100923.69;;;16.09;74.62
29063;BME280;71206;48.564;-123.458;2023-07-16T11:06:42;100924.42;;;15.48;81.63
29063;BME280;71206;48.564;-123.458;2023-07-16T11:09:07;100924.23;;;14.99;89.17
29063;BME280;71206;48.564;-123.458;2023-07-16T11:11:32;100924.03;;;15.87;81.16
29063;BME280;71206;48.564;-123.458;2023-07-16T11:13:57;100923.28;;;15.25;86.21
29063;BME280;71206;48.564;-123.458;2023-07-16T11:16:23;100916.10;;;16.26;74.54
29063;BME280;71206;48.564;-123.458;2023-07-16T11:18:48;100924.70;;;15.78;78.98
29063;BME280;71206;48.564;-123.458;2023-07-16T11:21:12;100919.45;;;16.34;80.79
29063;BME280;71206;48.564;-123.458;2023-07-16T11:23:37;100921.70;;;16.56;69.78
29063;BME280;71206;48.564;-123.458;2023-07-16T11:26:03;100921.99;;;15.29;79.78
29063;BME280;71206;48.564;-123.458;2023-07-16T11:28:36;100924.47;;;15.99;77.22
29063;BME280;71206;48.564;-123.458;2023-07-16T11:30:52;100924.51;;;15.30;84.96
29063;BME280;71206;48.564;-123.458;2023-07-16T11:33:17;100925.56;;;15.38;78.73
29063;BME280;71206;48.564;-123.458;2023-07-16T11:35:43;100934.25;;;14.94;85.72
29063;BME280;71206;48.564;-123.458;2023-07-16T11:38:08;100930.61;;;14.34;99.09
29063;BME280;71206;48.564;-123.458;2023-07-16T11:40:35;100931.14;;;15.18;90.44
29063;BME280;71206;48.564;-123.458;2023-07-16T11:43:06;100928.39;;;14.27;97.02
29063;BME280;71206;48.564;-123.458;2023-07-16T11:45:25;100925.61;;;14.77;97.69
29063;BME280;71206;48.564;-123.458;2023-07-16T11:47:48;100925.01;;;15.38;88.51
29063;BME280;71206;48.564;-123.458;2023-07-16T11:50:18;100928.62;;;15.62;79.04
29063;BME280;71206;48.564;-123.458;2023-07-16T11:52:39;100922.95;;;15.62;77.76
29063;BME280;71206;48.564;-123.458;2023-07-16T11:55:04;100928.33;;;16.36;68.16
29063;BME280;71206;48.564;-123.458;2023-07-16T11:57:29;100935.32;;;17.60;62.18
29063;BME280;71206;48.564;-123.458;2023-07-16T11:59:53;100933.23;;;16.24;69.75
29063;BME280;71206;48.564;-123.458;2023-07-16T12:02:20;100930.71;;;16.89;64.74
29063;BME280;71206;48.564;-123.458;2023-07-16T12:04:46;100938.11;;;16.93;65.10
29063;BME280;71206;48.564;-123.458;2023-07-16T12:07:10;100935.19;;;15.47;71.25
29063;BME280;71206;48.564;-123.458;2023-07-16T12:09:36;100932.66;;;17.33;61.32
29063;BME280;71206;48.564;-123.458;2023-07-16T12:12:00;100933.06;;;16.54;62.85
29063;BME280;71206;48.564;-123.458;2023-07-16T12:14:26;100929.76;;;15.30;73.66